Time;durP1;ratioP1;P1;durP2;ratioP2;P2;SDS_P1;SDS_P2;PMS_P1;PMS_P2;Temp;Humidity;BMP_temperature;BMP_pressure;BME280_temperature;BME280_humidity;BME280_pressure;Samples;Min_cycle;Max_cycle;Signal;HPM_P1;HPM_P2
2022/12/03 00:00:52;;;;;;;68.23;23.17;;;;;;;;;;6215833;23;20171;-92
2022/12/03 00:03:59;;;;;;;62.03;21.93;;;;;;;;;;6217650;23;20167;-93
2022/12/03 00:07:06;;;;;;;59.00;22.27;;;;;;;;;;6219392;23;20147;-95
2022/12/03 00:10:13;;;;;;;63.07;22.77;;;;;;;;;;6217861;23;20179;-93
2022/12/03 00:13:20;;;;;;;62.07;22.63;;;;;;;;;;6214418;23;20203;-92
2022/12/03 00:16:25;;;;;;;57.63;21.67;;;;;;;;;;6218196;23;20220;-94
2022/12/03 00:19:31;;;;;;;62.67;21.53;;;;;;;;;;6216329;23;20278;-92
2022/12/03 00:22:37;;;;;;;57.80;20.77;;;;;;;;;;6217218;23;20171;-94
2022/12/03 00:25:42;;;;;;;59.43;20.63;;;;;;;;;;6216675;23;20171;-93
2022/12/03 00:28:54;;;;;;;54.90;20.60;;;;;;;;;;6216490;23;20155;-93
2022/12/03 00:32:00;;;;;;;50.53;19.60;;;;;;;;;;6217673;23;20151;-93
2022/12/03 00:35:05;;;;;;;56.43;19.53;;;;;;;;;;6216225;23;20190;-92
2022/12/03 00:38:12;;;;;;;58.30;20.27;;;;;;;;;;6218761;23;20174;-93
2022/12/03 00:41:18;;;;;;;59.27;19.97;;;;;;;;;;6217130;23;20195;-93
2022/12/03 00:44:25;;;;;;;58.00;21.10;;;;;;;;;;6216443;23;20190;-92
2022/12/03 00:47:31;;;;;;;51.73;19.53;;;;;;;;;;6217657;23;20171;-94
2022/12/03 00:50:36;;;;;;;50.00;18.80;;;;;;;;;;6217368;23;20210;-94
2022/12/03 00:53:43;;;;;;;56.63;19.13;;;;;;;;;;6215848;23;20175;-94
2022/12/03 00:56:49;;;;;;;50.63;17.90;;;;;;;;;;6218025;23;20175;-94
2022/12/03 01:00:01;;;;;;;50.17;18.37;;;;;;;;;;6205855;23;20187;-93
2022/12/03 01:03:09;;;;;;;53.27;19.13;;;;;;;;;;6207507;23;20233;-94
2022/12/03 01:06:14;;;;;;;51.53;18.97;;;;;;;;;;6207018;23;20179;-94
2022/12/03 01:09:22;;;;;;;50.77;17.53;;;;;;;;;;6205877;23;20168;-95
2022/12/03 01:12:29;;;;;;;51.00;18.30;;;;;;;;;;6206714;23;20179;-94
2022/12/03 01:15:37;;;;;;;54.13;18.73;;;;;;;;;;6205805;23;20286;-94
2022/12/03 01:18:45;;;;;;;47.87;17.43;;;;;;;;;;6204513;23;20167;-92
2022/12/03 01:21:51;;;;;;;42.67;16.67;;;;;;;;;;6208022;23;20221;-92
2022/12/03 01:24:57;;;;;;;51.40;18.07;;;;;;;;;;6205284;23;20216;-93
2022/12/03 01:28:02;;;;;;;49.13;18.53;;;;;;;;;;6205824;23;20229;-94
2022/12/03 01:34:33;;;;;;;45.77;18.20;;;;;;;;;;6205905;23;20248;-94
2022/12/03 01:37:43;;;;;;;56.03;18.40;;;;;;;;;;6208701;23;20171;-94
2022/12/03 01:40:48;;;;;;;41.80;16.80;;;;;;;;;;6203996;23;20231;-92
2022/12/03 01:43:54;;;;;;;52.53;19.60;;;;;;;;;;6202984;23;20230;-93
2022/12/03 01:47:02;;;;;;;131.87;48.03;;;;;;;;;;6202727;23;20191;-93
2022/12/03 01:50:09;;;;;;;51.27;17.90;;;;;;;;;;6204240;23;20204;-93
2022/12/03 01:53:17;;;;;;;37.83;15.13;;;;;;;;;;6204193;23;20179;-92
2022/12/03 01:56:22;;;;;;;39.20;15.87;;;;;;;;;;6204245;23;20179;-92
2022/12/03 01:59:33;;;;;;;42.10;16.33;;;;;;;;;;6214825;23;20186;-93
2022/12/03 02:02:40;;;;;;;43.40;16.23;;;;;;;;;;6213677;23;20159;-92
2022/12/03 02:05:45;;;;;;;44.90;16.43;;;;;;;;;;6217580;23;20147;-93
2022/12/03 02:08:58;;;;;;;44.90;17.27;;;;;;;;;;6215678;23;20182;-94
2022/12/03 02:12:04;;;;;;;41.13;16.33;;;;;;;;;;6217072;23;20159;-93
2022/12/03 02:15:10;;;;;;;38.77;15.37;;;;;;;;;;6214177;23;20330;-93
2022/12/03 02:18:19;;;;;;;39.33;15.47;;;;;;;;;;6214315;23;20167;-91
2022/12/03 02:21:28;;;;;;;38.70;15.57;;;;;;;;;;6214557;23;20198;-92
2022/12/03 02:24:38;;;;;;;39.13;14.80;;;;;;;;;;6213706;23;20152;-93
2022/12/03 02:27:45;;;;;;;52.07;18.23;;;;;;;;;;6216033;23;20178;-93
2022/12/03 02:30:50;;;;;;;37.97;16.00;;;;;;;;;;6214449;23;20606;-94
2022/12/03 02:33:55;;;;;;;45.53;16.43;;;;;;;;;;6213085;23;20155;-93
2022/12/03 02:37:01;;;;;;;41.63;16.03;;;;;;;;;;6214656;23;20155;-93
2022/12/03 02:40:10;;;;;;;42.63;14.90;;;;;;;;;;6215056;23;20163;-92
2022/12/03 02:43:18;;;;;;;41.23;15.73;;;;;;;;;;6216258;23;20167;-94
2022/12/03 02:50:21;;;;;;;38.97;15.20;;;;;;;;;;6213200;23;20162;-94
2022/12/03 02:53:29;;;;;;;40.33;15.87;;;;;;;;;;6214025;23;20167;-95
2022/12/03 02:56:35;;;;;;;41.63;16.77;;;;;;;;;;6212366;23;20251;-94
2022/12/03 02:59:43;;;;;;;39.77;15.10;;;;;;;;;;6212374;23;20511;-93
2022/12/03 03:02:50;;;;;;;44.00;15.77;;;;;;;;;;6212833;23;20175;-93
2022/12/03 03:05:56;;;;;;;39.50;15.57;;;;;;;;;;6212456;23;20167;-94
2022/12/03 03:09:03;;;;;;;40.93;15.40;;;;;;;;;;6213151;23;20167;-93
2022/12/03 03:12:11;;;;;;;41.17;15.97;;;;;;;;;;6213026;23;20212;-92
2022/12/03 03:15:18;;;;;;;34.13;15.03;;;;;;;;;;6211293;23;20195;-93
2022/12/03 03:18:23;;;;;;;41.70;15.20;;;;;;;;;;6212686;23;20609;-93
2022/12/03 03:21:29;;;;;;;39.63;15.63;;;;;;;;;;6213065;23;20168;-94
2022/12/03 03:24:34;;;;;;;37.27;14.90;;;;;;;;;;6213675;23;20186;-93
2022/12/03 03:27:39;;;;;;;36.30;15.00;;;;;;;;;;6212734;23;20170;-92
2022/12/03 03:30:46;;;;;;;41.10;15.97;;;;;;;;;;6211471;23;20214;-92
2022/12/03 03:33:52;;;;;;;39.00;15.47;;;;;;;;;;6210725;23;20170;-92
2022/12/03 03:36:57;;;;;;;41.47;14.90;;;;;;;;;;6210976;23;20268;-94
2022/12/03 03:40:03;;;;;;;34.13;14.63;;;;;;;;;;6213243;23;20168;-93
2022/12/03 03:43:08;;;;;;;38.80;14.70;;;;;;;;;;6212073;23;20151;-93
2022/12/03 03:50:35;;;;;;;35.30;14.67;;;;;;;;;;6231989;23;20187;-93
2022/12/03 03:53:41;;;;;;;41.23;14.17;;;;;;;;;;6213106;23;20239;-94
2022/12/03 03:56:46;;;;;;;32.77;13.13;;;;;;;;;;6213290;23;20246;-95
2022/12/03 03:59:51;;;;;;;36.83;13.97;;;;;;;;;;6212455;23;20214;-94
2022/12/03 04:02:57;;;;;;;36.80;15.53;;;;;;;;;;6213478;23;20178;-95
2022/12/03 04:06:04;;;;;;;35.83;14.73;;;;;;;;;;6214112;23;20147;-94
2022/12/03 04:09:09;;;;;;;36.43;15.53;;;;;;;;;;6213248;23;20154;-93
2022/12/03 04:15:45;;;;;;;33.50;14.07;;;;;;;;;;6182705;23;20254;-92
2022/12/03 04:18:50;;;;;;;37.03;14.77;;;;;;;;;;6212986;23;20494;-93
2022/12/03 04:28:49;;;;;;;40.77;15.40;;;;;;;;;;6212195;23;20154;-93
2022/12/03 04:38:41;;;;;;;39.67;15.43;;;;;;;;;;6213089;23;20151;-93
2022/12/03 04:41:46;;;;;;;38.93;14.53;;;;;;;;;;6212387;23;20164;-95
2022/12/03 04:44:52;;;;;;;39.53;14.70;;;;;;;;;;6212482;23;20167;-94
2022/12/03 04:52:18;;;;;;;37.43;14.53;;;;;;;;;;6232772;23;20231;-95
2022/12/03 04:55:25;;;;;;;35.43;13.27;;;;;;;;;;6212026;23;20206;-94
2022/12/03 04:58:30;;;;;;;33.50;13.40;;;;;;;;;;6213277;23;20178;-93
2022/12/03 05:02:12;;;;;;;33.57;12.17;;;;;;;;;;6212091;23;20211;-95
2022/12/03 05:05:17;;;;;;;34.97;12.90;;;;;;;;;;6211307;23;20500;-94
2022/12/03 05:08:23;;;;;;;34.60;12.53;;;;;;;;;;6211897;23;20626;-94
2022/12/03 05:11:29;;;;;;;31.17;12.87;;;;;;;;;;6212228;23;20202;-94
2022/12/03 05:14:34;;;;;;;30.23;12.07;;;;;;;;;;6211251;23;20163;-95
2022/12/03 05:17:41;;;;;;;31.97;12.67;;;;;;;;;;6210955;23;20171;-94
2022/12/03 05:20:46;;;;;;;33.80;12.57;;;;;;;;;;6209860;23;20183;-92
2022/12/03 05:23:52;;;;;;;32.37;12.40;;;;;;;;;;6210110;23;20159;-95
2022/12/03 05:26:59;;;;;;;33.53;12.23;;;;;;;;;;6211778;23;20190;-93
2022/12/03 05:30:04;;;;;;;31.63;12.70;;;;;;;;;;6211445;23;20163;-94
2022/12/03 05:33:09;;;;;;;29.00;11.93;;;;;;;;;;6212662;23;20186;-93
2022/12/03 05:36:14;;;;;;;34.63;12.20;;;;;;;;;;6211211;23;20194;-93
2022/12/03 05:39:20;;;;;;;32.30;12.53;;;;;;;;;;6209884;23;20599;-93
2022/12/03 05:45:52;;;;;;;31.80;11.77;;;;;;;;;;6210445;23;20217;-93
2022/12/03 05:48:57;;;;;;;32.93;12.20;;;;;;;;;;6210652;23;20247;-94
2022/12/03 05:52:02;;;;;;;30.13;12.13;;;;;;;;;;6210299;23;20164;-94
2022/12/03 05:55:08;;;;;;;33.73;12.33;;;;;;;;;;6212249;23;20171;-93
2022/12/03 05:58:16;;;;;;;34.17;13.07;;;;;;;;;;6211781;23;20243;-93
2022/12/03 06:01:21;;;;;;;32.10;12.07;;;;;;;;;;6210917;23;20179;-93
2022/12/03 06:04:26;;;;;;;30.17;10.67;;;;;;;;;;6211227;23;20236;-93
2022/12/03 06:07:31;;;;;;;30.40;11.53;;;;;;;;;;6211697;23;20166;-94
2022/12/03 06:10:37;;;;;;;34.13;12.17;;;;;;;;;;6209605;23;20171;-92
2022/12/03 06:13:43;;;;;;;27.73;11.47;;;;;;;;;;6211769;23;20167;-93
2022/12/03 06:16:48;;;;;;;28.80;12.50;;;;;;;;;;6211184;23;20275;-93
2022/12/03 06:19:55;;;;;;;34.40;12.70;;;;;;;;;;6212886;23;20275;-93
2022/12/03 06:23:01;;;;;;;31.50;12.03;;;;;;;;;;6213854;23;20194;-94
2022/12/03 06:26:06;;;;;;;33.47;13.03;;;;;;;;;;6212684;23;20231;-94
2022/12/03 06:29:13;;;;;;;33.23;13.00;;;;;;;;;;6213322;23;20619;-93
2022/12/03 06:32:18;;;;;;;36.27;14.60;;;;;;;;;;6215471;23;20218;-94
2022/12/03 06:35:23;;;;;;;31.60;12.73;;;;;;;;;;6213831;23;20243;-92
2022/12/03 06:38:28;;;;;;;31.53;12.87;;;;;;;;;;6215413;23;20227;-93
2022/12/03 06:41:34;;;;;;;32.17;11.60;;;;;;;;;;6214892;23;20182;-93
2022/12/03 06:44:41;;;;;;;35.10;13.00;;;;;;;;;;6212485;23;20147;-93
2022/12/03 06:48:00;;;;;;;32.27;12.17;;;;;;;;;;6213147;23;20159;-93
2022/12/03 06:51:06;;;;;;;34.57;13.00;;;;;;;;;;6215934;23;20160;-93
2022/12/03 06:54:11;;;;;;;31.50;12.70;;;;;;;;;;6213488;23;20163;-92
2022/12/03 06:57:16;;;;;;;28.47;11.57;;;;;;;;;;6215403;23;20206;-94
2022/12/03 07:00:23;;;;;;;32.87;12.80;;;;;;;;;;6211560;23;20175;-93
2022/12/03 07:03:32;;;;;;;26.27;11.33;;;;;;;;;;6214445;23;20168;-94
2022/12/03 07:06:38;;;;;;;26.30;10.60;;;;;;;;;;6216018;23;20167;-92
2022/12/03 07:09:44;;;;;;;25.60;10.53;;;;;;;;;;6214378;23;20167;-93
2022/12/03 07:12:49;;;;;;;26.20;9.90;;;;;;;;;;6213064;23;20195;-93
2022/12/03 07:19:15;;;;;;;23.07;9.57;;;;;;;;;;6213726;23;20171;-93
2022/12/03 07:22:21;;;;;;;24.00;9.33;;;;;;;;;;6214411;23;20187;-92
2022/12/03 07:25:27;;;;;;;26.20;10.37;;;;;;;;;;6216360;23;20159;-93
2022/12/03 07:28:33;;;;;;;24.33;11.03;;;;;;;;;;6214465;23;20171;-93
2022/12/03 07:31:46;;;;;;;27.53;10.90;;;;;;;;;;6216379;23;20218;-93
2022/12/03 07:34:51;;;;;;;27.17;11.70;;;;;;;;;;6217506;23;20151;-93
2022/12/03 07:37:58;;;;;;;24.70;11.10;;;;;;;;;;6217336;23;20238;-94
2022/12/03 07:41:04;;;;;;;27.97;11.27;;;;;;;;;;6217714;23;20195;-93
2022/12/03 07:44:11;;;;;;;29.33;12.50;;;;;;;;;;6215678;23;20178;-92
2022/12/03 07:51:37;;;;;;;24.60;10.77;;;;;;;;;;6234390;23;20156;-93
2022/12/03 07:54:43;;;;;;;26.20;11.07;;;;;;;;;;6215927;23;20154;-94
2022/12/03 07:57:48;;;;;;;27.80;10.70;;;;;;;;;;6216331;23;20186;-95
2022/12/03 08:00:55;;;;;;;25.07;10.37;;;;;;;;;;6215761;23;20168;-95
2022/12/03 08:04:01;;;;;;;27.43;11.20;;;;;;;;;;6216719;23;20219;-94
2022/12/03 08:07:08;;;;;;;25.03;10.17;;;;;;;;;;6216991;23;20215;-93
2022/12/03 08:10:15;;;;;;;27.87;11.23;;;;;;;;;;6214940;23;20183;-92
2022/12/03 08:13:20;;;;;;;31.40;11.77;;;;;;;;;;6214279;23;20175;-92
2022/12/03 08:16:25;;;;;;;25.90;10.50;;;;;;;;;;6214157;23;20273;-93
2022/12/03 08:19:31;;;;;;;26.90;11.43;;;;;;;;;;6215735;23;20194;-94
2022/12/03 08:22:39;;;;;;;27.60;11.20;;;;;;;;;;6216030;23;20151;-93
2022/12/03 08:25:45;;;;;;;27.27;10.87;;;;;;;;;;6217134;23;20212;-93
2022/12/03 08:28:51;;;;;;;28.90;11.40;;;;;;;;;;6214869;23;20167;-94
2022/12/03 08:31:57;;;;;;;23.27;10.30;;;;;;;;;;6213405;23;20497;-93
2022/12/03 08:35:02;;;;;;;30.47;12.00;;;;;;;;;;6214733;23;20154;-92
2022/12/03 08:38:15;;;;;;;24.20;10.83;;;;;;;;;;6218099;23;20189;-94
2022/12/03 08:44:40;;;;;;;26.93;10.57;;;;;;;;;;6215670;23;20171;-94
2022/12/03 08:47:47;;;;;;;25.63;11.20;;;;;;;;;;6217043;23;20167;-93
2022/12/03 08:50:53;;;;;;;28.87;11.23;;;;;;;;;;6216427;23;20172;-93
2022/12/03 08:54:05;;;;;;;20.90;9.70;;;;;;;;;;6215490;23;20171;-93
2022/12/03 09:00:46;;;;;;;21.77;10.37;;;;;;;;;;6218137;23;20159;-92
2022/12/03 09:03:54;;;;;;;25.77;10.77;;;;;;;;;;6217426;23;20200;-93
2022/12/03 10:55:25;;;;;;;18.63;8.13;;;;;;;;;;6213038;23;20238;-94
2022/12/03 11:02:00;;;;;;;15.90;7.60;;;;;;;;;;6219324;23;20174;-91
2022/12/03 11:05:08;;;;;;;21.13;10.03;;;;;;;;;;6220238;23;20183;-96
2022/12/03 11:08:28;;;;;;;14.57;7.60;;;;;;;;;;6220060;23;20201;-91
2022/12/03 11:15:06;;;;;;;18.77;9.33;;;;;;;;;;6216688;23;20235;-92
2022/12/03 11:18:12;;;;;;;18.20;8.63;;;;;;;;;;6217654;23;20674;-92
2022/12/03 11:21:18;;;;;;;19.17;8.77;;;;;;;;;;6218808;23;20163;-92
2022/12/03 11:24:24;;;;;;;18.87;8.33;;;;;;;;;;6219545;23;20166;-93
2022/12/03 11:34:41;;;;;;;21.80;9.17;;;;;;;;;;6220314;23;20162;-92
2022/12/03 11:37:49;;;;;;;17.73;8.90;;;;;;;;;;6221521;23;20186;-92
2022/12/03 11:41:09;;;;;;;20.57;10.10;;;;;;;;;;6218978;23;20156;-94
2022/12/03 11:44:29;;;;;;;25.53;10.03;;;;;;;;;;6218459;23;20178;-92
2022/12/03 11:47:38;;;;;;;21.30;9.90;;;;;;;;;;6218688;23;20171;-91
2022/12/03 11:50:44;;;;;;;19.53;10.37;;;;;;;;;;6221677;23;20192;-92
2022/12/03 11:53:58;;;;;;;22.37;10.33;;;;;;;;;;6218661;23;20163;-91
2022/12/03 15:24:10;;;;;;;56.33;22.70;;;;;;;;;;5584705;22;15092038;-93
2022/12/03 15:27:15;;;;;;;25.30;11.83;;;;;;;;;;6273407;22;20201;-92
2022/12/03 15:30:21;;;;;;;27.70;10.87;;;;;;;;;;6274416;22;20193;-92
2022/12/03 15:33:26;;;;;;;23.57;10.97;;;;;;;;;;6275081;22;20162;-92
2022/12/03 15:36:31;;;;;;;41.50;19.90;;;;;;;;;;6276549;22;20193;-92
2022/12/03 15:39:43;;;;;;;30.80;13.67;;;;;;;;;;6276568;22;20212;-93
2022/12/03 15:42:53;;;;;;;35.30;16.60;;;;;;;;;;6275519;22;20234;-93
2022/12/03 15:49:47;;;;;;;26.17;11.97;;;;;;;;;;6275396;22;20166;-94
2022/12/03 15:52:52;;;;;;;34.83;13.57;;;;;;;;;;6275918;22;20287;-90
2022/12/03 15:55:59;;;;;;;32.37;14.17;;;;;;;;;;6273127;22;20209;-92
2022/12/03 15:59:04;;;;;;;36.37;14.50;;;;;;;;;;6275310;22;20231;-92
2022/12/03 16:02:10;;;;;;;30.60;13.40;;;;;;;;;;6273610;22;20181;-93
2022/12/03 16:05:15;;;;;;;37.90;15.07;;;;;;;;;;6274066;22;20169;-91
2022/12/03 16:08:20;;;;;;;41.70;16.90;;;;;;;;;;6271892;22;20189;-91
2022/12/03 16:11:26;;;;;;;44.40;16.70;;;;;;;;;;6271710;22;20162;-92
2022/12/03 16:14:32;;;;;;;42.47;17.07;;;;;;;;;;6273226;22;20212;-92
2022/12/03 16:17:37;;;;;;;44.07;17.27;;;;;;;;;;6271114;22;20196;-91
2022/12/03 16:20:42;;;;;;;42.37;18.23;;;;;;;;;;6270259;22;20166;-91
2022/12/03 16:23:48;;;;;;;40.07;17.50;;;;;;;;;;6271124;22;20188;-91
2022/12/03 16:27:08;;;;;;;37.53;16.47;;;;;;;;;;6274005;22;20195;-90
2022/12/03 16:30:15;;;;;;;38.67;16.67;;;;;;;;;;6273856;22;20225;-92
2022/12/03 16:33:21;;;;;;;33.90;14.33;;;;;;;;;;6273379;22;20166;-92
2022/12/03 16:36:26;;;;;;;36.47;15.93;;;;;;;;;;6274054;22;20157;-93
2022/12/03 16:39:31;;;;;;;73.63;29.27;;;;;;;;;;6272270;22;20205;-92
2022/12/03 16:42:36;;;;;;;34.60;14.97;;;;;;;;;;6274322;22;20150;-91
2022/12/03 16:46:01;;;;;;;41.20;17.90;;;;;;;;;;6276410;22;20476;-93
2022/12/03 16:52:27;;;;;;;37.83;15.10;;;;;;;;;;6281587;22;20170;-92
2022/12/03 16:55:33;;;;;;;32.07;14.33;;;;;;;;;;6276600;22;20170;-92
2022/12/03 16:58:40;;;;;;;33.17;15.90;;;;;;;;;;6273761;22;20244;-93
2022/12/03 17:01:47;;;;;;;36.23;15.57;;;;;;;;;;6275182;22;20162;-93
2022/12/03 17:04:52;;;;;;;47.83;19.00;;;;;;;;;;6275911;22;20256;-92
2022/12/03 17:07:57;;;;;;;36.50;16.00;;;;;;;;;;6275762;22;20387;-92
2022/12/03 17:11:03;;;;;;;36.60;16.27;;;;;;;;;;6275391;22;20173;-93
2022/12/03 17:14:08;;;;;;;29.73;14.57;;;;;;;;;;6275253;22;20174;-92
2022/12/03 17:17:15;;;;;;;33.43;15.70;;;;;;;;;;6277225;22;20250;-93
2022/12/03 17:20:20;;;;;;;37.07;15.80;;;;;;;;;;6273337;22;20189;-92
2022/12/03 17:23:26;;;;;;;30.87;14.30;;;;;;;;;;6276024;22;20150;-92
2022/12/03 17:26:32;;;;;;;33.17;14.50;;;;;;;;;;6275971;22;20227;-92
2022/12/03 17:29:38;;;;;;;38.07;16.40;;;;;;;;;;6276035;22;20612;-91
2022/12/03 17:32:44;;;;;;;35.73;14.27;;;;;;;;;;6275741;22;20166;-92
2022/12/03 17:35:49;;;;;;;32.77;14.63;;;;;;;;;;6275723;22;20167;-91
2022/12/03 17:38:55;;;;;;;33.27;14.53;;;;;;;;;;6275144;22;20213;-91
2022/12/03 17:42:00;;;;;;;38.80;15.60;;;;;;;;;;6277518;22;20441;-92
2022/12/03 17:45:06;;;;;;;31.60;14.33;;;;;;;;;;6278187;22;20240;-92
2022/12/03 17:52:37;;;;;;;33.63;14.33;;;;;;;;;;6297655;22;20230;-91
2022/12/03 17:55:43;;;;;;;37.83;15.97;;;;;;;;;;6278423;22;20218;-92
2022/12/03 17:58:51;;;;;;;36.10;15.67;;;;;;;;;;6276575;22;20262;-93
2022/12/03 18:01:56;;;;;;;38.83;16.33;;;;;;;;;;6277979;22;20239;-92
2022/12/03 18:05:02;;;;;;;38.77;17.07;;;;;;;;;;6275451;22;20174;-90
2022/12/03 18:08:09;;;;;;;38.60;16.73;;;;;;;;;;6277551;22;20197;-91
2022/12/03 18:11:14;;;;;;;40.97;18.33;;;;;;;;;;6276313;22;20216;-91
2022/12/03 18:14:19;;;;;;;35.03;16.30;;;;;;;;;;6278420;22;20157;-93
2022/12/03 18:17:24;;;;;;;33.93;15.67;;;;;;;;;;6276675;22;20216;-89
2022/12/03 18:20:29;;;;;;;34.10;15.93;;;;;;;;;;6277834;22;20205;-92
2022/12/03 18:23:36;;;;;;;36.87;16.07;;;;;;;;;;6276671;22;20222;-93
2022/12/03 18:26:42;;;;;;;33.37;15.23;;;;;;;;;;6273888;22;20255;-92
2022/12/03 18:29:48;;;;;;;35.90;15.73;;;;;;;;;;6273557;22;20202;-92
2022/12/03 18:32:53;;;;;;;35.97;16.43;;;;;;;;;;6274012;22;20165;-94
2022/12/03 18:35:58;;;;;;;41.50;17.57;;;;;;;;;;6274068;22;20162;-92
2022/12/03 18:39:08;;;;;;;35.30;16.70;;;;;;;;;;6276498;22;20225;-93
2022/12/03 18:42:15;;;;;;;40.80;16.63;;;;;;;;;;6278303;22;20157;-93
2022/12/03 18:45:20;;;;;;;36.83;16.90;;;;;;;;;;6275719;22;20153;-93
2022/12/03 18:48:29;;;;;;;40.30;17.30;;;;;;;;;;6277392;22;20165;-90
2022/12/03 18:51:35;;;;;;;38.77;17.70;;;;;;;;;;6276115;22;20169;-92
2022/12/03 18:54:46;;;;;;;39.07;17.03;;;;;;;;;;6274778;22;20253;-92
2022/12/03 18:57:51;;;;;;;41.13;17.67;;;;;;;;;;6275306;22;20162;-92
2022/12/03 19:00:56;;;;;;;37.97;16.93;;;;;;;;;;6275699;22;20193;-92
2022/12/03 19:04:02;;;;;;;39.10;18.07;;;;;;;;;;6274290;22;20263;-93
2022/12/03 19:07:10;;;;;;;42.70;19.07;;;;;;;;;;6276753;22;20170;-92
2022/12/03 19:10:18;;;;;;;35.50;17.43;;;;;;;;;;6276769;22;20153;-91
2022/12/03 19:13:23;;;;;;;42.80;17.67;;;;;;;;;;6277509;22;20149;-92
2022/12/03 19:16:28;;;;;;;36.40;16.37;;;;;;;;;;6277617;22;20162;-92
2022/12/03 19:43:02;;;;;;;51.43;20.60;;;;;;;;;;6265981;22;20210;-93
2022/12/03 19:46:08;;;;;;;41.07;17.20;;;;;;;;;;6274599;22;20150;-94
2022/12/03 19:49:15;;;;;;;36.97;16.87;;;;;;;;;;6273752;22;20177;-93
2022/12/03 19:52:21;;;;;;;59.03;23.03;;;;;;;;;;6275168;22;20149;-93
2022/12/03 19:55:26;;;;;;;37.53;16.93;;;;;;;;;;6275445;22;20158;-94
2022/12/03 19:58:33;;;;;;;35.83;17.27;;;;;;;;;;6274856;22;20384;-93
2022/12/03 20:01:39;;;;;;;41.17;17.43;;;;;;;;;;6275330;22;20162;-94
2022/12/03 20:04:46;;;;;;;51.00;17.87;;;;;;;;;;6277568;22;20150;-94
2022/12/03 20:07:51;;;;;;;44.10;17.83;;;;;;;;;;6275687;22;20205;-93
2022/12/03 20:10:56;;;;;;;42.57;18.33;;;;;;;;;;6277911;22;20157;-94
2022/12/03 20:14:11;;;;;;;42.03;17.87;;;;;;;;;;6277383;22;20161;-93
2022/12/03 20:17:16;;;;;;;45.60;18.57;;;;;;;;;;6275827;22;20162;-93
2022/12/03 20:20:22;;;;;;;50.63;20.57;;;;;;;;;;6277926;22;20232;-93
2022/12/03 20:23:27;;;;;;;64.13;26.63;;;;;;;;;;6280171;22;20177;-92
2022/12/03 20:26:32;;;;;;;70.10;26.77;;;;;;;;;;6278887;22;20169;-93
2022/12/03 20:29:39;;;;;;;55.40;23.03;;;;;;;;;;6279152;22;20181;-93
2022/12/03 20:32:45;;;;;;;60.93;23.37;;;;;;;;;;6276529;22;20216;-93
2022/12/03 20:35:52;;;;;;;54.07;21.10;;;;;;;;;;6279044;22;20158;-93
2022/12/03 20:38:58;;;;;;;52.20;20.50;;;;;;;;;;6276257;22;20200;-91
2022/12/03 20:42:04;;;;;;;59.77;19.47;;;;;;;;;;6276173;22;20623;-92
2022/12/03 20:45:13;;;;;;;65.00;24.17;;;;;;;;;;6277411;22;20149;-92
2022/12/03 20:48:19;;;;;;;50.33;18.97;;;;;;;;;;6277037;22;20174;-91
2022/12/03 20:51:25;;;;;;;49.67;18.37;;;;;;;;;;6276415;22;20154;-93
2022/12/03 20:54:30;;;;;;;52.37;18.57;;;;;;;;;;6274621;22;20488;-93
2022/12/03 20:57:35;;;;;;;50.80;18.17;;;;;;;;;;6274492;22;20150;-93
2022/12/03 21:00:42;;;;;;;51.17;18.57;;;;;;;;;;6276609;22;20213;-95
2022/12/03 21:03:51;;;;;;;47.77;18.03;;;;;;;;;;6276183;22;20265;-95
2022/12/03 21:06:56;;;;;;;47.73;16.93;;;;;;;;;;6276392;22;20189;-93
2022/12/03 21:10:01;;;;;;;63.17;18.47;;;;;;;;;;6275874;22;20161;-94
2022/12/03 21:13:06;;;;;;;63.20;19.77;;;;;;;;;;6275464;22;20173;-95
2022/12/03 21:16:14;;;;;;;71.77;19.57;;;;;;;;;;6273964;22;20153;-93
2022/12/03 21:19:20;;;;;;;56.50;19.57;;;;;;;;;;6276699;22;20197;-94
2022/12/03 21:22:26;;;;;;;63.13;20.70;;;;;;;;;;6276644;22;20173;-94
2022/12/03 21:25:31;;;;;;;55.30;20.00;;;;;;;;;;6276659;22;20208;-93
2022/12/03 21:28:36;;;;;;;48.97;18.93;;;;;;;;;;6274937;22;20162;-93
2022/12/03 21:31:43;;;;;;;66.80;19.50;;;;;;;;;;6277032;22;20220;-92
2022/12/03 21:34:51;;;;;;;55.37;20.13;;;;;;;;;;6276727;22;20196;-93
2022/12/03 21:37:58;;;;;;;51.47;17.63;;;;;;;;;;6274992;22;20204;-93
2022/12/03 21:41:03;;;;;;;48.93;18.77;;;;;;;;;;6275398;22;20173;-94
2022/12/03 21:44:08;;;;;;;68.37;17.00;;;;;;;;;;6276445;22;20188;-93
2022/12/03 21:51:36;;;;;;;79.23;19.20;;;;;;;;;;6296084;22;20207;-94
2022/12/03 21:54:41;;;;;;;67.23;19.97;;;;;;;;;;6277927;22;20179;-93
2022/12/03 21:57:47;;;;;;;73.67;18.60;;;;;;;;;;6278104;22;20150;-93
2022/12/03 22:00:52;;;;;;;52.63;20.10;;;;;;;;;;6278693;22;20252;-92
2022/12/03 22:03:57;;;;;;;61.17;17.33;;;;;;;;;;6279039;22;20632;-93
2022/12/03 22:07:05;;;;;;;55.50;19.90;;;;;;;;;;6276973;22;20170;-92
2022/12/03 22:10:11;;;;;;;60.10;19.37;;;;;;;;;;6275384;22;20591;-93
2022/12/03 22:13:16;;;;;;;62.60;19.33;;;;;;;;;;6277902;22;20163;-91
2022/12/03 22:16:22;;;;;;;66.80;19.47;;;;;;;;;;6276541;22;20225;-93
2022/12/03 22:19:28;;;;;;;57.27;18.67;;;;;;;;;;6275691;22;20280;-89
2022/12/03 22:22:35;;;;;;;42.50;17.50;;;;;;;;;;6276614;22;20225;-91
2022/12/03 22:25:40;;;;;;;61.50;17.37;;;;;;;;;;6277291;22;20165;-92
2022/12/03 22:28:47;;;;;;;69.80;18.10;;;;;;;;;;6277570;22;20175;-92
2022/12/03 22:31:52;;;;;;;51.27;17.77;;;;;;;;;;6278010;22;20161;-91
2022/12/03 22:34:58;;;;;;;47.57;16.70;;;;;;;;;;6277158;22;20169;-92
2022/12/03 22:38:04;;;;;;;108.40;18.10;;;;;;;;;;6275204;22;20166;-91
2022/12/03 22:41:10;;;;;;;51.90;16.20;;;;;;;;;;6276169;22;20197;-92
2022/12/03 22:44:15;;;;;;;55.67;17.73;;;;;;;;;;6275741;22;20170;-91
2022/12/03 22:47:20;;;;;;;52.97;16.13;;;;;;;;;;6275366;22;20188;-91
2022/12/03 22:50:25;;;;;;;72.33;16.20;;;;;;;;;;6274485;22;20225;-92
2022/12/03 22:53:34;;;;;;;76.97;16.53;;;;;;;;;;6274407;22;20165;-92
2022/12/03 22:56:39;;;;;;;86.67;16.33;;;;;;;;;;6275086;22;20492;-91
2022/12/03 22:59:45;;;;;;;47.33;15.87;;;;;;;;;;6272214;22;20743;-91
2022/12/03 23:02:57;;;;;;;58.10;16.33;;;;;;;;;;6273948;22;20150;-92
2022/12/03 23:06:09;;;;;;;94.10;17.23;;;;;;;;;;6272704;22;20261;-91
2022/12/03 23:09:15;;;;;;;53.27;16.83;;;;;;;;;;6274245;22;20157;-92
2022/12/03 23:12:20;;;;;;;63.93;16.63;;;;;;;;;;6274928;22;20235;-91
2022/12/03 23:15:25;;;;;;;64.70;18.07;;;;;;;;;;6271934;22;20625;-92
2022/12/03 23:18:31;;;;;;;54.33;15.63;;;;;;;;;;6274299;22;20158;-91
2022/12/03 23:21:36;;;;;;;54.27;16.87;;;;;;;;;;6272412;22;20178;-91
2022/12/03 23:24:43;;;;;;;44.07;15.50;;;;;;;;;;6272168;22;20165;-91
2022/12/03 23:27:48;;;;;;;115.07;18.17;;;;;;;;;;6274263;22;20224;-91
2022/12/03 23:30:53;;;;;;;48.33;15.83;;;;;;;;;;6271286;22;20166;-91
2022/12/03 23:33:59;;;;;;;60.97;16.63;;;;;;;;;;6273507;22;20145;-91
2022/12/03 23:37:04;;;;;;;57.03;17.13;;;;;;;;;;6272534;22;20153;-91
2022/12/03 23:40:12;;;;;;;56.70;16.70;;;;;;;;;;6271032;22;20197;-91
2022/12/03 23:43:18;;;;;;;54.90;16.83;;;;;;;;;;6272022;22;20238;-91
2022/12/03 23:46:27;;;;;;;64.03;16.53;;;;;;;;;;6273029;22;20146;-92
2022/12/03 23:49:32;;;;;;;47.57;15.20;;;;;;;;;;6272355;22;20232;-91
2022/12/03 23:52:37;;;;;;;49.50;17.67;;;;;;;;;;6271744;22;20166;-93
2022/12/03 23:55:46;;;;;;;41.23;14.47;;;;;;;;;;6270401;22;20212;-91
2022/12/03 23:58:52;;;;;;;62.63;16.10;;;;;;;;;;6271904;22;20169;-93
